Time;durP1;ratioP1;P1;durP2;ratioP2;P2;SDS_P1;SDS_P2;PMS_P1;PMS_P2;Temp;Humidity;BMP_temperature;BMP_pressure;BME280_temperature;BME280_humidity;BME280_pressure;Samples;Min_cycle;Max_cycle;Signal;HPM_P1;HPM_P2
2022/11/30 00:03:31;;;;;;;9.25;4.60;;;7.40;99.90;;;;;;20462144;28;20043;-44
2022/11/30 00:13:32;;;;;;;7.03;3.75;;;7.60;99.90;;;;;;20470748;28;20046;-44
2022/11/30 00:23:34;;;;;;;7.63;3.72;;;7.70;99.90;;;;;;20461468;28;20412;-43
2022/11/30 00:33:37;;;;;;;5.43;2.75;;;7.70;99.90;;;;;;20452514;28;20094;-44
2022/11/30 00:43:38;;;;;;;9.75;4.78;;;7.70;99.90;;;;;;20447993;28;20114;-44
2022/11/30 00:53:39;;;;;;;8.55;5.43;;;7.70;99.90;;;;;;20441726;28;20573;-43
2022/11/30 01:03:40;;;;;;;8.15;5.07;;;7.70;99.90;;;;;;20436873;28;20186;-44
2022/11/30 01:13:42;;;;;;;7.88;3.97;;;7.70;99.90;;;;;;20452433;28;20136;-43
2022/11/30 01:23:43;;;;;;;8.00;4.40;;;7.70;99.90;;;;;;20443247;28;20158;-44
2022/11/30 01:33:49;;;;;;;8.13;4.32;;;7.80;99.90;;;;;;20446534;28;20462;-43
2022/11/30 01:43:56;;;;;;;8.52;5.45;;;7.80;99.90;;;;;;20439979;28;20291;-44
2022/11/30 01:53:57;;;;;;;8.47;5.67;;;7.80;99.90;;;;;;20437556;28;20534;-44
2022/11/30 02:04:03;;;;;;;12.05;5.40;;;7.80;99.90;;;;;;20427496;28;20153;-43
2022/11/30 02:14:29;;;;;;;7.40;4.15;;;7.80;99.90;;;;;;20426914;28;20245;-43
2022/11/30 02:24:52;;;;;;;7.72;3.78;;;7.80;99.90;;;;;;20421621;28;20145;-44
2022/11/30 02:34:55;;;;;;;8.93;4.80;;;7.90;99.90;;;;;;20424661;28;21402;-43
2022/11/30 02:44:56;;;;;;;7.65;4.00;;;7.90;99.90;;;;;;20431411;28;20697;-43
2022/11/30 02:55:06;;;;;;;5.22;4.03;;;7.80;99.90;;;;;;20435482;28;20468;-43
2022/11/30 03:05:08;;;;;;;9.63;4.35;;;7.70;99.90;;;;;;20420654;28;20153;-44
2022/11/30 03:15:09;;;;;;;11.95;5.32;;;7.70;99.90;;;;;;20430325;28;20130;-43
2022/11/30 03:25:10;;;;;;;5.97;4.18;;;7.60;99.90;;;;;;20421394;28;20051;-44
2022/11/30 03:35:11;;;;;;;10.00;5.13;;;7.60;99.90;;;;;;20402933;28;20078;-44
2022/11/30 03:45:12;;;;;;;7.05;4.63;;;7.60;99.90;;;;;;20404934;28;20044;-44
2022/11/30 03:55:13;;;;;;;7.45;5.70;;;7.70;99.90;;;;;;20399120;28;20126;-43
2022/11/30 04:05:14;;;;;;;9.95;5.50;;;7.70;99.90;;;;;;20400392;28;20130;-44
2022/11/30 04:15:15;;;;;;;11.93;5.90;;;7.60;99.90;;;;;;20408294;28;20174;-43
2022/11/30 04:25:16;;;;;;;6.85;5.47;;;7.60;99.90;;;;;;20402316;28;20563;-43
2022/11/30 04:35:17;;;;;;;10.15;5.72;;;7.60;99.90;;;;;;20396764;28;20513;-43
2022/11/30 04:45:18;;;;;;;8.55;5.22;;;7.60;99.90;;;;;;20377927;28;20047;-43
2022/11/30 04:55:19;;;;;;;10.73;6.35;;;7.60;99.90;;;;;;20389213;28;20058;-43
2022/11/30 05:05:21;;;;;;;12.07;6.70;;;7.50;99.90;;;;;;20414783;28;20073;-44
2022/11/30 05:15:22;;;;;;;10.68;6.47;;;7.50;99.90;;;;;;20434294;28;20091;-44
2022/11/30 05:25:23;;;;;;;9.85;5.60;;;7.50;99.90;;;;;;20434221;28;20439;-44
2022/11/30 05:35:24;;;;;;;11.30;5.68;;;7.50;99.90;;;;;;20432870;28;20129;-44
2022/11/30 05:45:25;;;;;;;8.52;5.63;;;7.50;99.90;;;;;;20419695;28;20332;-43
2022/11/30 05:55:28;;;;;;;9.73;4.50;;;7.50;99.90;;;;;;20428809;28;20134;-43
2022/11/30 06:05:29;;;;;;;12.48;5.82;;;7.30;99.90;;;;;;20426304;28;20134;-44
2022/11/30 06:15:30;;;;;;;7.55;4.97;;;7.10;99.90;;;;;;20427281;28;20078;-45
2022/11/30 06:25:31;;;;;;;10.90;6.20;;;7.10;99.90;;;;;;20434581;28;20054;-43
2022/11/30 06:35:32;;;;;;;9.18;5.32;;;7.00;99.90;;;;;;20428051;28;20138;-44
2022/11/30 06:45:33;;;;;;;7.70;5.03;;;6.90;99.90;;;;;;20430917;28;20126;-43
2022/11/30 06:55:34;;;;;;;8.60;5.38;;;6.90;99.90;;;;;;20445486;28;20054;-44
2022/11/30 07:05:41;;;;;;;9.00;6.18;;;6.90;99.90;;;;;;20444715;28;20059;-44
2022/11/30 07:15:42;;;;;;;9.93;6.40;;;6.90;99.90;;;;;;20439643;28;20141;-43
2022/11/30 07:36:03;;;;;;;8.18;6.68;;;7.10;99.90;;;;;;20459794;28;20885;-43
2022/11/30 07:46:05;;;;;;;9.35;5.80;;;7.00;99.90;;;;;;20445303;28;20082;-43
2022/11/30 07:56:17;;;;;;;15.23;7.97;;;7.00;99.90;;;;;;20434079;28;20556;-43
2022/11/30 08:06:21;;;;;;;11.50;6.32;;;7.00;99.90;;;;;;20444882;28;20126;-44
2022/11/30 08:16:24;;;;;;;7.63;4.47;;;7.00;99.90;;;;;;20453381;28;20122;-44
2022/11/30 08:26:25;;;;;;;11.45;5.88;;;7.00;99.90;;;;;;20459378;28;20047;-44
2022/11/30 08:36:27;;;;;;;8.65;5.78;;;7.00;99.90;;;;;;20446535;28;20094;-43
2022/11/30 08:46:28;;;;;;;12.52;7.95;;;7.20;99.90;;;;;;20451377;28;20196;-44
2022/11/30 08:56:29;;;;;;;17.25;10.00;;;7.20;99.90;;;;;;20443379;28;20758;-44
2022/11/30 09:06:30;;;;;;;9.80;5.72;;;7.40;99.90;;;;;;20410152;28;20555;-42
2022/11/30 09:16:31;;;;;;;26.55;16.08;;;7.50;99.90;;;;;;20403254;28;20424;-43
2022/11/30 09:26:32;;;;;;;14.23;8.18;;;7.60;99.90;;;;;;20403441;28;20635;-44
2022/11/30 09:36:41;;;;;;;12.20;7.70;;;7.60;99.90;;;;;;20902892;27;20631;-43
2022/11/30 09:47:09;;;;;;;20.73;11.77;;;7.80;99.90;;;;;;20839541;28;20064;-44
2022/11/30 09:57:25;;;;;;;17.73;9.87;;;7.90;99.90;;;;;;20841408;28;21688;-45
2022/11/30 10:07:59;;;;;;;13.77;7.18;;;8.00;99.90;;;;;;20829121;28;20818;-45
2022/11/30 10:18:13;;;;;;;18.95;7.20;;;8.20;99.90;;;;;;20815960;28;20053;-44
2022/11/30 10:28:22;;;;;;;11.52;7.43;;;8.30;99.90;;;;;;20826414;28;20136;-44
2022/11/30 10:38:29;;;;;;;19.73;11.20;;;8.30;99.90;;;;;;20843632;28;20488;-45
2022/11/30 10:48:36;;;;;;;16.97;9.07;;;8.40;99.90;;;;;;20774008;28;20453;-45
2022/11/30 10:58:55;;;;;;;11.87;7.40;;;8.50;99.90;;;;;;20780679;28;20083;-44
2022/11/30 11:08:56;;;;;;;22.65;12.82;;;8.70;99.90;;;;;;20799667;28;20237;-44
2022/11/30 11:18:57;;;;;;;27.17;12.05;;;8.70;99.90;;;;;;20785376;28;20072;-45
2022/11/30 11:28:58;;;;;;;15.13;8.65;;;8.80;99.90;;;;;;20814461;28;20484;-45
2022/11/30 11:39:00;;;;;;;13.80;8.10;;;8.80;99.90;;;;;;20811344;28;20531;-44
2022/11/30 11:49:20;;;;;;;16.25;9.88;;;8.90;99.90;;;;;;20781487;28;20145;-45
2022/11/30 11:59:29;;;;;;;13.75;9.40;;;9.10;99.90;;;;;;20782059;28;20364;-45
2022/11/30 12:09:35;;;;;;;16.98;7.47;;;10.10;99.90;;;;;;20754938;28;20345;-46
2022/11/30 12:19:57;;;;;;;12.30;6.15;;;10.80;99.90;;;;;;20769905;28;20516;-45
2022/11/30 12:30:16;;;;;;;10.45;5.65;;;10.90;99.90;;;;;;20757281;28;20128;-45
2022/11/30 12:40:39;;;;;;;9.60;5.00;;;10.30;99.90;;;;;;20780994;28;20131;-45
2022/11/30 12:50:52;;;;;;;14.00;5.90;;;10.80;99.90;;;;;;20775006;28;20991;-45
2022/11/30 13:01:20;;;;;;;6.80;3.63;;;10.80;99.90;;;;;;20780678;28;20141;-46
2022/11/30 13:11:34;;;;;;;10.77;5.47;;;10.40;99.90;;;;;;20772339;28;20139;-46
2022/11/30 13:21:46;;;;;;;8.48;4.60;;;9.90;99.90;;;;;;20782732;28;20065;-45
2022/11/30 13:31:56;;;;;;;7.68;5.28;;;10.10;99.90;;;;;;20757381;28;20298;-45
2022/11/30 13:42:00;;;;;;;9.15;4.95;;;10.00;99.90;;;;;;20772788;28;20059;-44
2022/11/30 13:52:03;;;;;;;6.78;4.60;;;9.70;99.90;;;;;;20777936;28;20076;-44
2022/11/30 14:02:32;;;;;;;12.85;5.93;;;9.50;99.90;;;;;;20773374;28;20125;-44
2022/11/30 14:12:33;;;;;;;14.15;7.43;;;9.20;99.90;;;;;;20775041;28;20092;-46
2022/11/30 14:22:39;;;;;;;13.43;7.55;;;9.00;99.90;;;;;;20785065;28;20110;-44
2022/11/30 14:32:43;;;;;;;15.93;9.23;;;8.80;99.90;;;;;;20793740;28;20178;-45
2022/11/30 14:42:47;;;;;;;14.65;7.05;;;8.50;99.90;;;;;;20794998;28;20126;-45
2022/11/30 14:53:25;;;;;;;16.20;6.18;;;8.30;99.90;;;;;;20791522;28;21850;-45
2022/11/30 15:03:32;;;;;;;8.70;6.53;;;8.10;99.90;;;;;;20742921;28;20107;-45
2022/11/30 15:13:38;;;;;;;12.10;6.93;;;7.90;99.90;;;;;;20770588;28;20127;-45
2022/11/30 15:23:39;;;;;;;15.73;9.25;;;7.60;99.90;;;;;;20772860;28;20643;-43
2022/11/30 15:33:42;;;;;;;11.82;5.78;;;7.40;99.90;;;;;;20778663;28;20112;-45
2022/11/30 15:43:54;;;;;;;13.50;7.40;;;7.20;99.90;;;;;;20773611;28;20072;-45
2022/11/30 15:53:55;;;;;;;10.20;6.15;;;7.10;99.90;;;;;;20781956;28;20195;-45
2022/11/30 16:04:04;;;;;;;16.27;8.80;;;6.80;99.90;;;;;;20744837;28;20144;-44
2022/11/30 16:14:05;;;;;;;12.50;7.90;;;6.70;99.90;;;;;;20782842;28;20096;-45
2022/11/30 16:24:08;;;;;;;14.15;8.80;;;6.60;99.90;;;;;;20778632;28;20047;-44
2022/11/30 16:34:10;;;;;;;16.27;7.72;;;6.50;99.90;;;;;;20782954;28;20080;-44
2022/11/30 16:44:13;;;;;;;14.18;7.50;;;6.40;99.90;;;;;;20779729;28;20033;-44
2022/11/30 16:54:14;;;;;;;14.18;7.05;;;6.20;99.90;;;;;;20783678;28;20111;-44
2022/11/30 17:04:25;;;;;;;13.98;7.53;;;6.00;99.90;;;;;;20780757;28;20049;-45
2022/11/30 17:14:26;;;;;;;11.32;6.80;;;5.80;99.90;;;;;;20781174;28;20041;-44
2022/11/30 17:24:27;;;;;;;15.73;7.90;;;5.70;99.90;;;;;;20780508;28;20102;-41
2022/11/30 17:34:28;;;;;;;13.98;7.65;;;5.50;99.90;;;;;;20780169;28;20065;-41
2022/11/30 17:44:29;;;;;;;15.25;6.10;;;5.50;99.90;;;;;;20789445;28;20615;-42
2022/11/30 17:54:30;;;;;;;13.90;7.68;;;5.50;99.90;;;;;;20799008;28;20412;-44
2022/11/30 18:04:31;;;;;;;13.40;7.72;;;5.50;99.90;;;;;;20782668;28;20596;-45
2022/11/30 18:14:32;;;;;;;13.32;7.75;;;5.50;99.90;;;;;;20791820;28;20539;-45
2022/11/30 18:24:33;;;;;;;14.88;8.27;;;5.60;99.90;;;;;;20771515;28;20519;-44
2022/11/30 18:34:35;;;;;;;12.57;7.45;;;5.60;99.90;;;;;;20777955;28;20258;-44
2022/11/30 18:44:36;;;;;;;17.98;7.88;;;5.80;99.90;;;;;;20780665;28;20151;-45
2022/11/30 18:54:37;;;;;;;12.13;8.13;;;5.90;99.90;;;;;;20773311;28;20041;-44
2022/11/30 19:04:38;;;;;;;15.00;7.93;;;6.00;99.90;;;;;;20766733;28;20461;-44
2022/11/30 19:14:41;;;;;;;15.60;9.60;;;6.00;99.90;;;;;;20762074;28;20251;-44
2022/11/30 19:24:42;;;;;;;16.73;9.65;;;6.10;99.90;;;;;;20768539;28;20153;-45
2022/11/30 19:34:43;;;;;;;14.88;7.50;;;6.20;99.90;;;;;;20764739;28;20044;-44
2022/11/30 19:44:44;;;;;;;22.08;11.25;;;6.40;99.90;;;;;;20765024;28;20052;-45
2022/11/30 19:54:45;;;;;;;19.20;9.98;;;6.40;99.90;;;;;;20762706;28;20126;-45
2022/11/30 20:04:46;;;;;;;17.77;9.50;;;6.40;99.90;;;;;;20767625;28;20102;-44
2022/11/30 20:14:48;;;;;;;19.15;10.15;;;6.30;99.90;;;;;;20753260;28;21833;-44
2022/11/30 20:24:49;;;;;;;25.38;11.05;;;6.10;99.90;;;;;;20775717;28;20073;-44
2022/11/30 20:34:50;;;;;;;20.75;10.60;;;6.00;99.90;;;;;;20769263;28;20616;-44
2022/11/30 20:44:52;;;;;;;22.95;10.57;;;5.90;99.90;;;;;;20772977;28;20481;-45
2022/11/30 20:54:53;;;;;;;17.00;10.45;;;5.70;99.90;;;;;;20769879;28;20701;-44
2022/11/30 21:04:54;;;;;;;18.40;9.82;;;5.60;99.90;;;;;;20758431;28;20193;-45
2022/11/30 21:14:55;;;;;;;23.20;11.68;;;5.60;99.90;;;;;;20770302;28;20060;-45
2022/11/30 21:24:56;;;;;;;16.83;10.38;;;5.60;99.90;;;;;;20758937;28;20130;-44
2022/11/30 21:34:57;;;;;;;22.88;11.77;;;5.60;99.90;;;;;;20748726;28;20139;-45
2022/11/30 21:44:58;;;;;;;19.05;10.52;;;5.40;99.90;;;;;;20763712;28;20033;-45
2022/11/30 21:54:59;;;;;;;19.25;11.60;;;5.30;99.90;;;;;;20768220;28;20046;-45
2022/11/30 22:05:00;;;;;;;23.10;11.27;;;5.20;99.90;;;;;;20771920;28;20056;-44
2022/11/30 22:15:01;;;;;;;23.65;10.40;;;5.10;99.90;;;;;;20777983;28;20406;-44
2022/11/30 22:25:02;;;;;;;21.30;11.25;;;5.00;99.90;;;;;;20775287;28;20045;-44
2022/11/30 22:35:03;;;;;;;18.80;9.95;;;4.90;99.90;;;;;;20775814;28;20623;-45
2022/11/30 22:45:05;;;;;;;17.30;9.82;;;4.80;99.90;;;;;;20790761;28;20101;-45
2022/11/30 22:55:06;;;;;;;17.25;8.48;;;4.60;99.90;;;;;;20787338;28;20116;-44
2022/11/30 23:05:07;;;;;;;18.33;10.00;;;4.50;99.90;;;;;;20790270;28;20045;-44
2022/11/30 23:15:08;;;;;;;19.83;10.52;;;4.30;99.90;;;;;;20787414;28;20084;-46
2022/11/30 23:25:09;;;;;;;16.65;9.95;;;4.10;99.90;;;;;;20788716;28;20124;-45
2022/11/30 23:35:10;;;;;;;25.33;11.43;;;4.10;99.90;;;;;;20782406;28;20048;-44
2022/11/30 23:45:12;;;;;;;21.52;10.50;;;4.20;99.90;;;;;;20786425;28;20041;-45
2022/11/30 23:55:13;;;;;;;24.45;12.65;;;4.20;99.90;;;;;;20791465;28;20329;-45
